sensor_id;sensor_type;location;lat;lon;timestamp;pressure;altitude;pressure_sealevel;temperature;humidity
27643;BME280;15053;48.618;10.024;2023-04-20T00:00:20;94149.50;;;4.84;73.62
27643;BME280;15053;48.618;10.024;2023-04-20T00:02:47;94143.81;;;4.87;74.49
27643;BME280;15053;48.618;10.024;2023-04-20T00:05:14;94138.66;;;4.87;73.19
27643;BME280;15053;48.618;10.024;2023-04-20T00:07:40;94135.56;;;4.85;73.66
27643;BME280;15053;48.618;10.024;2023-04-20T00:10:07;94138.38;;;4.84;73.16
27643;BME280;15053;48.618;10.024;2023-04-20T00:12:34;94130.91;;;4.82;73.33
27643;BME280;15053;48.618;10.024;2023-04-20T00:15:01;94131.16;;;4.75;73.39
27643;BME280;15053;48.618;10.024;2023-04-20T00:17:27;94127.78;;;4.70;73.32
27643;BME280;15053;48.618;10.024;2023-04-20T00:19:54;94120.81;;;4.65;73.83
27643;BME280;15053;48.618;10.024;2023-04-20T00:22:20;94116.16;;;4.62;73.02
27643;BME280;15053;48.618;10.024;2023-04-20T00:24:46;94120.53;;;4.62;73.58
27643;BME280;15053;48.618;10.024;2023-04-20T00:27:13;94119.78;;;4.61;73.35
27643;BME280;15053;48.618;10.024;2023-04-20T00:29:39;94114.34;;;4.58;73.41
27643;BME280;15053;48.618;10.024;2023-04-20T00:32:06;94112.28;;;4.60;74.00
27643;BME280;15053;48.618;10.024;2023-04-20T00:34:32;94107.38;;;4.58;73.31
27643;BME280;15053;48.618;10.024;2023-04-20T00:36:59;94108.41;;;4.57;73.67
27643;BME280;15053;48.618;10.024;2023-04-20T00:39:26;94103.25;;;4.57;73.06
27643;BME280;15053;48.618;10.024;2023-04-20T00:41:53;94102.47;;;4.57;73.75
27643;BME280;15053;48.618;10.024;2023-04-20T00:44:19;94103.25;;;4.57;73.98
27643;BME280;15053;48.618;10.024;2023-04-20T00:46:45;94101.94;;;4.55;73.66
27643;BME280;15053;48.618;10.024;2023-04-20T00:49:12;94098.56;;;4.49;74.09
27643;BME280;15053;48.618;10.024;2023-04-20T00:51:38;94089.78;;;4.45;74.36
27643;BME280;15053;48.618;10.024;2023-04-20T00:54:05;94078.69;;;4.40;74.53
27643;BME280;15053;48.618;10.024;2023-04-20T00:56:32;94079.72;;;4.39;74.01
27643;BME280;15053;48.618;10.024;2023-04-20T00:59:00;94072.47;;;4.31;74.48
27643;BME280;15053;48.618;10.024;2023-04-20T01:01:27;94063.69;;;4.27;74.43
27643;BME280;15053;48.618;10.024;2023-04-20T01:03:54;94067.53;;;4.24;74.51
27643;BME280;15053;48.618;10.024;2023-04-20T01:06:21;94070.09;;;4.19;75.04
27643;BME280;15053;48.618;10.024;2023-04-20T01:08:50;94054.09;;;4.12;75.09
27643;BME280;15053;48.618;10.024;2023-04-20T01:11:17;94060.78;;;4.13;74.42
27643;BME280;15053;48.618;10.024;2023-04-20T01:13:44;94060.00;;;4.12;75.13
27643;BME280;15053;48.618;10.024;2023-04-20T01:16:10;94049.72;;;4.12;74.91
27643;BME280;15053;48.618;10.024;2023-04-20T01:18:45;94047.16;;;4.17;75.00
27643;BME280;15053;48.618;10.024;2023-04-20T01:21:13;94044.34;;;4.19;75.07
27643;BME280;15053;48.618;10.024;2023-04-20T01:23:40;94043.56;;;4.18;75.64
27643;BME280;15053;48.618;10.024;2023-04-20T01:26:07;94049.47;;;4.19;75.35
27643;BME280;15053;48.618;10.024;2023-04-20T01:28:34;94042.78;;;4.18;75.82
27643;BME280;15053;48.618;10.024;2023-04-20T01:31:02;94048.47;;;4.25;75.42
27643;BME280;15053;48.618;10.024;2023-04-20T01:33:30;94026.31;;;4.24;75.26
27643;BME280;15053;48.618;10.024;2023-04-20T01:35:57;94023.22;;;4.22;75.78
27643;BME280;15053;48.618;10.024;2023-04-20T01:38:24;94032.47;;;4.18;75.41
27643;BME280;15053;48.618;10.024;2023-04-20T01:40:51;94025.97;;;4.05;75.20
27643;BME280;15053;48.618;10.024;2023-04-20T01:43:21;94027.75;;;3.95;74.65
27643;BME280;15053;48.618;10.024;2023-04-20T01:45:47;94013.25;;;3.79;74.47
27643;BME280;15053;48.618;10.024;2023-04-20T01:48:14;94015.28;;;3.77;74.53
27643;BME280;15053;48.618;10.024;2023-04-20T01:50:40;94012.94;;;3.70;75.07
27643;BME280;15053;48.618;10.024;2023-04-20T01:53:07;94013.41;;;3.62;75.17
27643;BME280;15053;48.618;10.024;2023-04-20T01:55:34;94007.97;;;3.53;75.22
27643;BME280;15053;48.618;10.024;2023-04-20T01:58:00;94013.59;;;3.50;75.34
27643;BME280;15053;48.618;10.024;2023-04-20T02:00:26;94009.97;;;3.46;75.67
27643;BME280;15053;48.618;10.024;2023-04-20T02:06:19;94000.16;;;3.43;76.03
27643;BME280;15053;48.618;10.024;2023-04-20T02:08:46;94004.00;;;3.41;76.45
27643;BME280;15053;48.618;10.024;2023-04-20T02:11:13;94000.63;;;3.35;76.31
27643;BME280;15053;48.618;10.024;2023-04-20T02:13:39;93998.56;;;3.32;75.95
27643;BME280;15053;48.618;10.024;2023-04-20T02:16:06;93998.28;;;3.29;76.35
27643;BME280;15053;48.618;10.024;2023-04-20T02:18:32;93995.41;;;3.20;76.75
27643;BME280;15053;48.618;10.024;2023-04-20T02:20:59;93988.47;;;3.21;76.78
27643;BME280;15053;48.618;10.024;2023-04-20T02:23:26;93988.16;;;3.17;76.93
27643;BME280;15053;48.618;10.024;2023-04-20T02:25:54;93984.03;;;3.16;76.77
27643;BME280;15053;48.618;10.024;2023-04-20T02:28:20;93986.88;;;3.15;76.97
27643;BME280;15053;48.618;10.024;2023-04-20T02:30:47;93976.81;;;3.13;76.72
27643;BME280;15053;48.618;10.024;2023-04-20T02:33:13;93980.16;;;3.14;77.33
27643;BME280;15053;48.618;10.024;2023-04-20T02:35:40;93975.28;;;3.12;77.25
27643;BME280;15053;48.618;10.024;2023-04-20T02:38:09;93974.22;;;3.13;78.36
27643;BME280;15053;48.618;10.024;2023-04-20T02:40:37;93976.09;;;3.18;77.80
27643;BME280;15053;48.618;10.024;2023-04-20T02:43:04;93974.28;;;3.18;78.16
27643;BME280;15053;48.618;10.024;2023-04-20T02:45:33;93972.28;;;3.25;77.88
27643;BME280;15053;48.618;10.024;2023-04-20T02:47:59;93963.03;;;3.29;78.12
27643;BME280;15053;48.618;10.024;2023-04-20T02:50:29;93967.16;;;3.35;78.98
27643;BME280;15053;48.618;10.024;2023-04-20T02:53:22;93969.53;;;3.42;78.45
27643;BME280;15053;48.618;10.024;2023-04-20T02:55:56;93957.72;;;3.46;78.54
27643;BME280;15053;48.618;10.024;2023-04-20T02:58:34;93952.06;;;3.49;78.76
27643;BME280;15053;48.618;10.024;2023-04-20T03:01:24;93954.41;;;3.50;78.58
27643;BME280;15053;48.618;10.024;2023-04-20T03:03:59;93951.06;;;3.50;78.49
27643;BME280;15053;48.618;10.024;2023-04-20T03:06:25;93950.03;;;3.51;78.45
27643;BME280;15053;48.618;10.024;2023-04-20T03:08:55;93947.97;;;3.53;78.66
27643;BME280;15053;48.618;10.024;2023-04-20T03:11:51;93941.03;;;3.53;79.01
27643;BME280;15053;48.618;10.024;2023-04-20T03:14:33;93943.09;;;3.51;78.70
27643;BME280;15053;48.618;10.024;2023-04-20T03:17:00;93941.53;;;3.50;78.86
27643;BME280;15053;48.618;10.024;2023-04-20T03:19:27;93941.00;;;3.48;78.49
27643;BME280;15053;48.618;10.024;2023-04-20T03:21:54;93937.91;;;3.46;78.47
27643;BME280;15053;48.618;10.024;2023-04-20T03:24:20;93939.94;;;3.44;78.48
27643;BME280;15053;48.618;10.024;2023-04-20T03:26:48;93936.84;;;3.37;78.27
27643;BME280;15053;48.618;10.024;2023-04-20T03:29:17;93935.31;;;3.41;78.41
27643;BME280;15053;48.618;10.024;2023-04-20T03:31:45;93931.19;;;3.40;78.40
27643;BME280;15053;48.618;10.024;2023-04-20T03:34:11;93926.28;;;3.39;78.34
27643;BME280;15053;48.618;10.024;2023-04-20T03:36:38;93925.50;;;3.38;78.63
27643;BME280;15053;48.618;10.024;2023-04-20T03:39:05;93918.53;;;3.34;78.97
27643;BME280;15053;48.618;10.024;2023-04-20T03:41:32;93929.34;;;3.31;78.77
27643;BME280;15053;48.618;10.024;2023-04-20T03:43:58;93922.13;;;3.33;79.19
27643;BME280;15053;48.618;10.024;2023-04-20T03:46:25;93920.84;;;3.30;79.00
27643;BME280;15053;48.618;10.024;2023-04-20T03:48:52;93921.38;;;3.32;79.65
27643;BME280;15053;48.618;10.024;2023-04-20T03:51:18;93920.34;;;3.33;79.82
27643;BME280;15053;48.618;10.024;2023-04-20T03:53:45;93918.28;;;3.35;80.43
27643;BME280;15053;48.618;10.024;2023-04-20T03:56:12;93919.56;;;3.38;80.67
27643;BME280;15053;48.618;10.024;2023-04-20T03:58:38;93921.91;;;3.39;81.03
27643;BME280;15053;48.618;10.024;2023-04-20T04:01:10;93923.97;;;3.37;81.48
27643;BME280;15053;48.618;10.024;2023-04-20T04:03:43;93924.69;;;3.33;80.92
27643;BME280;15053;48.618;10.024;2023-04-20T04:06:11;93918.53;;;3.29;81.17
27643;BME280;15053;48.618;10.024;2023-04-20T04:08:37;93918.75;;;3.27;81.27
27643;BME280;15053;48.618;10.024;2023-04-20T04:11:04;93916.97;;;3.28;81.52
27643;BME280;15053;48.618;10.024;2023-04-20T04:13:30;93915.94;;;3.29;81.27
27643;BME280;15053;48.618;10.024;2023-04-20T04:16:00;93915.44;;;3.32;81.50
27643;BME280;15053;48.618;10.024;2023-04-20T04:18:27;93922.69;;;3.35;81.78
27643;BME280;15053;48.618;10.024;2023-04-20T04:21:03;93920.84;;;3.35;81.48
27643;BME280;15053;48.618;10.024;2023-04-20T04:23:33;93926.78;;;3.36;82.14
27643;BME280;15053;48.618;10.024;2023-04-20T04:26:14;93920.91;;;3.40;81.88
27643;BME280;15053;48.618;10.024;2023-04-20T04:28:43;93922.94;;;3.38;81.89
27643;BME280;15053;48.618;10.024;2023-04-20T04:31:18;93922.94;;;3.38;82.55
27643;BME280;15053;48.618;10.024;2023-04-20T04:33:46;93919.84;;;3.36;82.08
27643;BME280;15053;48.618;10.024;2023-04-20T04:36:27;93921.41;;;3.37;82.75
27643;BME280;15053;48.618;10.024;2023-04-20T04:38:56;93919.09;;;3.41;82.68
27643;BME280;15053;48.618;10.024;2023-04-20T04:41:23;93918.06;;;3.42;82.29
27643;BME280;15053;48.618;10.024;2023-04-20T04:43:53;93905.97;;;3.42;82.70
27643;BME280;15053;48.618;10.024;2023-04-20T04:46:25;93905.97;;;3.42;82.50
27643;BME280;15053;48.618;10.024;2023-04-20T04:48:55;93907.50;;;3.43;82.88
27643;BME280;15053;48.618;10.024;2023-04-20T04:51:22;93915.50;;;3.47;82.82
27643;BME280;15053;48.618;10.024;2023-04-20T04:53:49;93914.50;;;3.48;82.45
27643;BME280;15053;48.618;10.024;2023-04-20T04:56:16;93919.94;;;3.51;82.70
27643;BME280;15053;48.618;10.024;2023-04-20T04:58:43;93921.22;;;3.54;82.83
27643;BME280;15053;48.618;10.024;2023-04-20T05:01:11;93908.84;;;3.51;82.49
27643;BME280;15053;48.618;10.024;2023-04-20T05:03:37;93914.28;;;3.60;82.64
27643;BME280;15053;48.618;10.024;2023-04-20T05:06:04;93908.88;;;3.61;82.90
27643;BME280;15053;48.618;10.024;2023-04-20T05:08:30;93916.88;;;3.65;82.62
27643;BME280;15053;48.618;10.024;2023-04-20T05:10:57;93911.47;;;3.66;82.28
27643;BME280;15053;48.618;10.024;2023-04-20T05:13:23;93913.03;;;3.67;82.79
27643;BME280;15053;48.618;10.024;2023-04-20T05:15:50;93916.91;;;3.70;82.88
27643;BME280;15053;48.618;10.024;2023-04-20T05:18:16;93917.41;;;3.67;82.51
27643;BME280;15053;48.618;10.024;2023-04-20T05:20:43;93918.19;;;3.72;82.74
27643;BME280;15053;48.618;10.024;2023-04-20T05:23:10;93917.19;;;3.73;83.12
27643;BME280;15053;48.618;10.024;2023-04-20T05:25:36;93926.69;;;3.73;82.62
27643;BME280;15053;48.618;10.024;2023-04-20T05:28:03;93930.06;;;3.78;82.94
27643;BME280;15053;48.618;10.024;2023-04-20T05:30:29;93924.91;;;3.78;83.08
27643;BME280;15053;48.618;10.024;2023-04-20T05:32:56;93931.88;;;3.83;83.30
27643;BME280;15053;48.618;10.024;2023-04-20T05:35:23;93915.66;;;3.82;82.89
27643;BME280;15053;48.618;10.024;2023-04-20T05:37:49;93922.88;;;3.85;82.72
27643;BME280;15053;48.618;10.024;2023-04-20T05:40:16;93916.69;;;3.86;83.39
27643;BME280;15053;48.618;10.024;2023-04-20T05:42:43;93913.84;;;3.88;83.21
27643;BME280;15053;48.618;10.024;2023-04-20T05:45:10;93923.66;;;3.91;82.82
27643;BME280;15053;48.618;10.024;2023-04-20T05:47:36;93928.31;;;3.94;83.10
27643;BME280;15053;48.618;10.024;2023-04-20T05:50:03;93913.38;;;3.96;83.53
27643;BME280;15053;48.618;10.024;2023-04-20T05:52:30;93919.06;;;3.98;83.61
27643;BME280;15053;48.618;10.024;2023-04-20T05:54:56;93921.13;;;4.01;83.17
27643;BME280;15053;48.618;10.024;2023-04-20T05:57:24;93917.00;;;4.05;83.20
27643;BME280;15053;48.618;10.024;2023-04-20T05:59:51;93919.56;;;4.05;83.61
27643;BME280;15053;48.618;10.024;2023-04-20T06:02:17;93917.50;;;4.07;83.69
27643;BME280;15053;48.618;10.024;2023-04-20T06:04:44;93917.00;;;4.05;83.40
27643;BME280;15053;48.618;10.024;2023-04-20T06:07:11;93922.66;;;4.07;83.24
27643;BME280;15053;48.618;10.024;2023-04-20T06:09:38;93918.56;;;4.11;83.58
27643;BME280;15053;48.618;10.024;2023-04-20T06:12:04;93919.59;;;4.15;83.40
27643;BME280;15053;48.618;10.024;2023-04-20T06:14:31;93919.59;;;4.15;83.47
27643;BME280;15053;48.618;10.024;2023-04-20T06:16:57;93912.91;;;4.19;83.83
27643;BME280;15053;48.618;10.024;2023-04-20T06:19:23;93915.50;;;4.24;83.40
27643;BME280;15053;48.618;10.024;2023-04-20T06:21:50;93910.84;;;4.26;83.19
27643;BME280;15053;48.618;10.024;2023-04-20T06:24:16;93914.22;;;4.27;83.17
27643;BME280;15053;48.618;10.024;2023-04-20T06:26:43;93910.34;;;4.29;83.70
27643;BME280;15053;48.618;10.024;2023-04-20T06:29:09;93907.25;;;4.32;83.37
27643;BME280;15053;48.618;10.024;2023-04-20T06:31:36;93899.53;;;4.32;83.55
27643;BME280;15053;48.618;10.024;2023-04-20T06:34:02;93906.75;;;4.35;83.75
27643;BME280;15053;48.618;10.024;2023-04-20T06:36:29;93910.88;;;4.36;83.36
27643;BME280;15053;48.618;10.024;2023-04-20T06:38:56;93907.75;;;4.34;83.14
27643;BME280;15053;48.618;10.024;2023-04-20T06:41:22;93903.16;;;4.31;83.80
27643;BME280;15053;48.618;10.024;2023-04-20T06:43:49;93903.38;;;4.25;84.02
27643;BME280;15053;48.618;10.024;2023-04-20T06:46:15;93906.97;;;4.29;84.47
27643;BME280;15053;48.618;10.024;2023-04-20T06:48:42;93908.28;;;4.26;84.37
27643;BME280;15053;48.618;10.024;2023-04-20T06:51:11;93915.50;;;4.24;84.11
27643;BME280;15053;48.618;10.024;2023-04-20T06:53:38;93915.75;;;4.23;84.79
27643;BME280;15053;48.618;10.024;2023-04-20T06:56:04;93916.50;;;4.23;84.66
27643;BME280;15053;48.618;10.024;2023-04-20T06:58:31;93911.63;;;4.22;84.43
27643;BME280;15053;48.618;10.024;2023-04-20T07:00:58;93915.50;;;4.24;84.62
27643;BME280;15053;48.618;10.024;2023-04-20T07:03:24;93910.59;;;4.28;85.19
27643;BME280;15053;48.618;10.024;2023-04-20T07:05:51;93913.47;;;4.31;84.54
27643;BME280;15053;48.618;10.024;2023-04-20T07:08:17;93910.59;;;4.33;85.61
27643;BME280;15053;48.618;10.024;2023-04-20T07:10:44;93909.84;;;4.32;85.62
27643;BME280;15053;48.618;10.024;2023-04-20T07:13:10;93900.81;;;4.30;85.00
27643;BME280;15053;48.618;10.024;2023-04-20T07:15:37;93907.75;;;4.34;85.57
27643;BME280;15053;48.618;10.024;2023-04-20T07:18:03;93907.75;;;4.34;85.74
27643;BME280;15053;48.618;10.024;2023-04-20T07:20:30;93910.88;;;4.36;86.08
27643;BME280;15053;48.618;10.024;2023-04-20T07:22:56;93899.53;;;4.42;85.58
27643;BME280;15053;48.618;10.024;2023-04-20T07:25:23;93909.31;;;4.45;85.96
27643;BME280;15053;48.618;10.024;2023-04-20T07:27:50;93907.28;;;4.47;85.82
27643;BME280;15053;48.618;10.024;2023-04-20T07:30:17;93900.06;;;4.49;86.19
27643;BME280;15053;48.618;10.024;2023-04-20T07:32:43;93908.81;;;4.53;86.08
27643;BME280;15053;48.618;10.024;2023-04-20T07:35:10;93909.84;;;4.57;85.46
27643;BME280;15053;48.618;10.024;2023-04-20T07:37:36;93908.84;;;4.63;85.90
27643;BME280;15053;48.618;10.024;2023-04-20T07:40:03;93906.25;;;4.63;85.50
27643;BME280;15053;48.618;10.024;2023-04-20T07:42:32;93907.03;;;4.64;86.25
27643;BME280;15053;48.618;10.024;2023-04-20T07:45:00;93909.84;;;4.67;86.52
27643;BME280;15053;48.618;10.024;2023-04-20T07:47:26;93909.59;;;4.69;86.03
27643;BME280;15053;48.618;10.024;2023-04-20T07:49:53;93918.91;;;4.75;86.11
27643;BME280;15053;48.618;10.024;2023-04-20T07:52:20;93923.50;;;4.78;86.42
27643;BME280;15053;48.618;10.024;2023-04-20T07:54:46;93923.28;;;4.80;86.78
27643;BME280;15053;48.618;10.024;2023-04-20T07:57:13;93925.06;;;4.79;86.68
27643;BME280;15053;48.618;10.024;2023-04-20T07:59:40;93928.69;;;4.83;87.26
27643;BME280;15053;48.618;10.024;2023-04-20T08:02:07;93925.34;;;4.83;87.45
27643;BME280;15053;48.618;10.024;2023-04-20T08:04:37;93919.66;;;4.86;87.03
27643;BME280;15053;48.618;10.024;2023-04-20T08:07:04;93916.53;;;4.84;87.45
27643;BME280;15053;48.618;10.024;2023-04-20T08:09:31;93918.88;;;4.90;87.22
27643;BME280;15053;48.618;10.024;2023-04-20T08:11:57;93912.94;;;4.95;87.90
27643;BME280;15053;48.618;10.024;2023-04-20T08:14:24;93908.56;;;5.05;88.13
27643;BME280;15053;48.618;10.024;2023-04-20T08:16:50;93911.63;;;5.07;88.73
27643;BME280;15053;48.618;10.024;2023-04-20T08:19:17;93905.97;;;5.10;88.62
27643;BME280;15053;48.618;10.024;2023-04-20T08:21:43;93904.41;;;5.09;89.12
27643;BME280;15053;48.618;10.024;2023-04-20T08:24:10;93899.50;;;5.13;88.42
27643;BME280;15053;48.618;10.024;2023-04-20T08:26:37;93908.78;;;5.14;89.17
27643;BME280;15053;48.618;10.024;2023-04-20T08:29:05;93896.66;;;5.09;88.82
27643;BME280;15053;48.618;10.024;2023-04-20T08:31:32;93903.38;;;5.05;88.93
27643;BME280;15053;48.618;10.024;2023-04-20T08:33:58;93898.47;;;4.99;89.27
27643;BME280;15053;48.618;10.024;2023-04-20T08:36:25;93891.75;;;4.98;89.12
27643;BME280;15053;48.618;10.024;2023-04-20T08:38:55;93894.63;;;4.96;89.77
27643;BME280;15053;48.618;10.024;2023-04-20T08:41:24;93887.91;;;4.95;90.10
27643;BME280;15053;48.618;10.024;2023-04-20T08:43:50;93896.41;;;4.96;89.54
27643;BME280;15053;48.618;10.024;2023-04-20T08:46:17;93891.25;;;5.01;89.99
27643;BME280;15053;48.618;10.024;2023-04-20T08:48:45;93889.69;;;5.10;89.61
27643;BME280;15053;48.618;10.024;2023-04-20T08:51:14;93887.88;;;5.15;90.42
27643;BME280;15053;48.618;10.024;2023-04-20T08:53:42;93876.50;;;5.21;90.15
27643;BME280;15053;48.618;10.024;2023-04-20T08:56:09;93882.66;;;5.30;90.52
27643;BME280;15053;48.618;10.024;2023-04-20T08:58:36;93877.72;;;5.39;91.36
27643;BME280;15053;48.618;10.024;2023-04-20T09:01:09;93871.03;;;5.43;90.81
27643;BME280;15053;48.618;10.024;2023-04-20T09:03:37;93878.47;;;5.50;91.17
27643;BME280;15053;48.618;10.024;2023-04-20T09:06:05;93878.19;;;5.56;91.71
27643;BME280;15053;48.618;10.024;2023-04-20T09:08:37;93884.91;;;5.57;91.59
27643;BME280;15053;48.618;10.024;2023-04-20T09:11:04;93879.22;;;5.55;91.42
27643;BME280;15053;48.618;10.024;2023-04-20T09:13:31;93883.09;;;5.53;92.21
27643;BME280;15053;48.618;10.024;2023-04-20T09:16:08;93880.78;;;5.56;92.21
27643;BME280;15053;48.618;10.024;2023-04-20T09:18:36;93878.69;;;5.58;91.71
27643;BME280;15053;48.618;10.024;2023-04-20T09:21:07;93875.09;;;5.59;92.05
27643;BME280;15053;48.618;10.024;2023-04-20T09:23:34;93877.13;;;5.62;92.16
27643;BME280;15053;48.618;10.024;2023-04-20T09:26:00;93869.13;;;5.64;91.66
27643;BME280;15053;48.618;10.024;2023-04-20T09:28:36;93865.50;;;5.65;92.76
27643;BME280;15053;48.618;10.024;2023-04-20T09:31:17;93859.56;;;5.64;92.52
27643;BME280;15053;48.618;10.024;2023-04-20T09:33:44;93866.50;;;5.69;92.66
27643;BME280;15053;48.618;10.024;2023-04-20T09:36:10;93864.97;;;5.68;92.67
27643;BME280;15053;48.618;10.024;2023-04-20T09:38:37;93861.09;;;5.70;92.74
27643;BME280;15053;48.618;10.024;2023-04-20T09:41:04;93861.09;;;5.70;92.31
27643;BME280;15053;48.618;10.024;2023-04-20T09:43:32;93864.44;;;5.71;92.95
27643;BME280;15053;48.618;10.024;2023-04-20T09:46:01;93854.88;;;5.71;92.94
27643;BME280;15053;48.618;10.024;2023-04-20T09:48:29;93850.25;;;5.68;92.13
27643;BME280;15053;48.618;10.024;2023-04-20T09:51:00;93853.88;;;5.67;93.16
27643;BME280;15053;48.618;10.024;2023-04-20T09:53:27;93846.63;;;5.69;93.27
27643;BME280;15053;48.618;10.024;2023-04-20T09:55:55;93848.16;;;5.70;92.69
27643;BME280;15053;48.618;10.024;2023-04-20T09:58:23;93834.19;;;5.71;93.14
27643;BME280;15053;48.618;10.024;2023-04-20T10:00:50;93830.84;;;5.76;93.10
27643;BME280;15053;48.618;10.024;2023-04-20T10:03:17;93839.81;;;5.83;92.72
27643;BME280;15053;48.618;10.024;2023-04-20T10:05:44;93842.69;;;5.87;93.35
27643;BME280;15053;48.618;10.024;2023-04-20T10:08:11;93846.50;;;5.94;93.13
27643;BME280;15053;48.618;10.024;2023-04-20T10:10:48;93854.72;;;6.02;92.32
27643;BME280;15053;48.618;10.024;2023-04-20T10:13:15;93840.53;;;6.04;93.02
27643;BME280;15053;48.618;10.024;2023-04-20T10:15:45;93842.53;;;6.07;93.00
27643;BME280;15053;48.618;10.024;2023-04-20T10:18:19;93833.22;;;6.11;92.78
27643;BME280;15053;48.618;10.024;2023-04-20T10:20:46;93842.78;;;6.11;92.12
27643;BME280;15053;48.618;10.024;2023-04-20T10:23:13;93835.13;;;6.01;92.55
27643;BME280;15053;48.618;10.024;2023-04-20T10:25:41;93845.94;;;6.03;92.45
27643;BME280;15053;48.618;10.024;2023-04-20T10:28:10;93848.56;;;5.98;92.29
27643;BME280;15053;48.618;10.024;2023-04-20T10:30:49;93855.03;;;5.95;92.41
27643;BME280;15053;48.618;10.024;2023-04-20T10:33:16;93851.72;;;5.89;92.58
27643;BME280;15053;48.618;10.024;2023-04-20T10:35:54;93851.44;;;5.91;93.22
27643;BME280;15053;48.618;10.024;2023-04-20T10:38:31;93849.91;;;5.90;93.14
27643;BME280;15053;48.618;10.024;2023-04-20T10:41:09;93852.72;;;5.93;92.95
27643;BME280;15053;48.618;10.024;2023-04-20T10:43:35;93842.38;;;5.99;92.80
27643;BME280;15053;48.618;10.024;2023-04-20T10:46:22;93847.00;;;5.97;92.55
27643;BME280;15053;48.618;10.024;2023-04-20T10:51:17;93839.53;;;5.95;93.00
27643;BME280;15053;48.618;10.024;2023-04-20T10:53:44;93834.63;;;5.99;92.79
27643;BME280;15053;48.618;10.024;2023-04-20T10:56:10;93832.78;;;5.99;92.58
27643;BME280;15053;48.618;10.024;2023-04-20T10:58:37;93824.50;;;6.02;92.91
27643;BME280;15053;48.618;10.024;2023-04-20T11:01:03;93819.56;;;6.06;93.96
27643;BME280;15053;48.618;10.024;2023-04-20T11:03:31;93816.94;;;6.11;93.37
27643;BME280;15053;48.618;10.024;2023-04-20T11:06:00;93812.84;;;6.10;92.86
27643;BME280;15053;48.618;10.024;2023-04-20T11:08:41;93821.13;;;6.07;92.83
27643;BME280;15053;48.618;10.024;2023-04-20T11:13:45;93819.66;;;5.96;93.64
27643;BME280;15053;48.618;10.024;2023-04-20T11:16:13;93816.00;;;5.97;93.20
27643;BME280;15053;48.618;10.024;2023-04-20T11:18:54;93810.84;;;5.97;93.64
27643;BME280;15053;48.618;10.024;2023-04-20T11:21:21;93802.81;;;5.98;93.41
27643;BME280;15053;48.618;10.024;2023-04-20T11:23:48;93812.38;;;5.98;93.86
27643;BME280;15053;48.618;10.024;2023-04-20T11:26:15;93801.28;;;5.97;93.33
27643;BME280;15053;48.618;10.024;2023-04-20T11:28:52;93798.44;;;5.99;93.71
27643;BME280;15053;48.618;10.024;2023-04-20T11:31:21;93800.78;;;5.95;93.72
27643;BME280;15053;48.618;10.024;2023-04-20T11:33:48;93805.94;;;5.95;95.12
27643;BME280;15053;48.618;10.024;2023-04-20T11:36:22;93794.59;;;5.91;94.71
27643;BME280;15053;48.618;10.024;2023-04-20T11:38:49;93795.88;;;5.93;94.54
27643;BME280;15053;48.618;10.024;2023-04-20T11:41:16;93802.09;;;5.92;95.15
27643;BME280;15053;48.618;10.024;2023-04-20T11:43:43;93797.94;;;5.91;94.40
27643;BME280;15053;48.618;10.024;2023-04-20T11:46:14;93799.75;;;5.91;94.31
27643;BME280;15053;48.618;10.024;2023-04-20T11:48:42;93790.47;;;5.90;94.78
27643;BME280;15053;48.618;10.024;2023-04-20T11:51:08;93797.47;;;5.84;94.78
27643;BME280;15053;48.618;10.024;2023-04-20T11:53:35;93794.09;;;5.84;94.48
27643;BME280;15053;48.618;10.024;2023-04-20T11:56:03;93796.19;;;5.87;94.83
27643;BME280;15053;48.618;10.024;2023-04-20T11:58:29;93798.00;;;5.81;94.92
27643;BME280;15053;48.618;10.024;2023-04-20T12:00:56;93806.25;;;5.83;94.61
27643;BME280;15053;48.618;10.024;2023-04-20T12:03:22;93802.38;;;5.81;95.12
27643;BME280;15053;48.618;10.024;2023-04-20T12:05:49;93807.00;;;5.89;95.06
27643;BME280;15053;48.618;10.024;2023-04-20T12:08:16;93811.41;;;5.88;95.02
27643;BME280;15053;48.618;10.024;2023-04-20T12:10:43;93807.28;;;5.87;94.39
27643;BME280;15053;48.618;10.024;2023-04-20T12:13:09;93810.63;;;5.83;93.83
27643;BME280;15053;48.618;10.024;2023-04-20T12:15:36;93804.44;;;5.84;93.82
27643;BME280;15053;48.618;10.024;2023-04-20T12:18:03;93801.06;;;5.83;94.32
27643;BME280;15053;48.618;10.024;2023-04-20T12:20:29;93800.56;;;5.86;94.54
27643;BME280;15053;48.618;10.024;2023-04-20T12:22:56;93808.31;;;5.86;93.73
27643;BME280;15053;48.618;10.024;2023-04-20T12:25:24;93804.72;;;5.87;94.07
27643;BME280;15053;48.618;10.024;2023-04-20T12:27:50;93797.94;;;5.91;94.54
27643;BME280;15053;48.618;10.024;2023-04-20T12:30:17;93797.91;;;5.97;94.30
27643;BME280;15053;48.618;10.024;2023-04-20T12:32:43;93799.72;;;6.01;93.98
27643;BME280;15053;48.618;10.024;2023-04-20T12:35:10;93790.63;;;6.04;94.35
27643;BME280;15053;48.618;10.024;2023-04-20T12:37:36;93796.53;;;6.09;94.79
27643;BME280;15053;48.618;10.024;2023-04-20T12:40:03;93791.34;;;6.14;94.10
27643;BME280;15053;48.618;10.024;2023-04-20T12:42:31;93791.88;;;6.11;93.79
27643;BME280;15053;48.618;10.024;2023-04-20T12:44:58;93786.53;;;5.98;93.60
27643;BME280;15053;48.618;10.024;2023-04-20T12:47:24;93790.63;;;6.04;93.90
27643;BME280;15053;48.618;10.024;2023-04-20T12:49:51;93794.25;;;6.03;93.91
27643;BME280;15053;48.618;10.024;2023-04-20T12:52:17;93791.44;;;5.99;94.23
27643;BME280;15053;48.618;10.024;2023-04-20T12:54:44;93796.88;;;5.98;94.06
27643;BME280;15053;48.618;10.024;2023-04-20T12:57:11;93793.25;;;5.99;94.11
27643;BME280;15053;48.618;10.024;2023-04-20T12:59:38;93783.38;;;6.06;93.82
27643;BME280;15053;48.618;10.024;2023-04-20T13:02:04;93782.59;;;6.05;93.72
27643;BME280;15053;48.618;10.024;2023-04-20T13:04:31;93785.69;;;6.07;93.75
27643;BME280;15053;48.618;10.024;2023-04-20T13:06:58;93792.66;;;6.12;94.66
27643;BME280;15053;48.618;10.024;2023-04-20T13:09:24;93791.09;;;6.11;94.21
27643;BME280;15053;48.618;10.024;2023-04-20T13:11:52;93788.00;;;6.09;94.12